Aviation Digital Data Service (ADDS)

Output produced by METARs form (1238 UTC 17 November 2018)
found at http://aviationweather.gov/metar/data/
 
KTUS 171120Z 1712/1812 15007KT P6SM SCT250 
     FM171700 21004KT P6SM SCT250 
     FM172000 29006KT P6SM BKN250 
     FM180400 15005KT P6SM BKN200